Time;durP1;ratioP1;P1;durP2;ratioP2;P2;SDS_P1;SDS_P2;PMS_P1;PMS_P2;Temp;Humidity;BMP_temperature;BMP_pressure;BME280_temperature;BME280_humidity;BME280_pressure;Samples;Min_cycle;Max_cycle;Signal;HPM_P1;HPM_P2
2021/05/12 00:01:23;;;;;;;;;;;;;;;-142.75;56.82;77164.81;5049689;28;19923;-79
2021/05/12 00:03:49;;;;;;;;;;;;;;;-142.75;57.35;77160.88;5069659;28;19934;-78
2021/05/12 00:06:14;;;;;;;;;;;;;;;-142.75;58.59;77164.81;5070081;28;19970;-79
2021/05/12 00:08:39;;;;;;;;;;;;;;;-142.75;60.56;77168.75;5071363;28;20370;-80
2021/05/12 00:11:04;;;;;;;;;;;;;;;-142.75;61.01;77184.50;5056017;28;20474;-79
2021/05/12 00:13:29;;;;;;;;;;;;;;;-142.75;61.29;77200.25;5073827;28;19916;-79
2021/05/12 00:15:55;;;;;;;;;;;;;;;-142.75;61.58;77212.06;5051167;28;19916;-80
2021/05/12 00:18:22;;;;;;;;;;;;;;;-142.75;61.68;77221.91;5073113;28;19917;-79
2021/05/12 00:20:48;;;;;;;;;;;;;;;-142.75;63.48;77217.97;5054857;28;19916;-78
2021/05/12 00:23:24;;;;;;;;;;;;;;;-142.75;64.04;77212.06;5071934;28;19921;-80
2021/05/12 00:25:49;;;;;;;;;;;;;;;-142.75;63.73;77196.31;5055476;28;19916;-79
2021/05/12 00:28:14;;;;;;;;;;;;;;;-142.75;63.76;77206.16;5055277;28;19939;-80
2021/05/12 00:30:40;;;;;;;;;;;;;;;-142.75;64.50;77208.13;5072872;28;19942;-80
2021/05/12 00:33:05;;;;;;;;;;;;;;;-142.75;64.02;77225.84;5072990;28;19916;-80
2021/05/12 00:35:30;;;;;;;;;;;;;;;-142.75;64.42;77231.75;5072822;28;19920;-79
2021/05/12 00:37:55;;;;;;;;;;;;;;;-142.75;64.86;77243.56;5073190;28;19916;-79
2021/05/12 00:40:21;;;;;;;;;;;;;;;-142.75;65.59;77247.50;5067632;28;19916;-78
2021/05/12 00:42:47;;;;;;;;;;;;;;;-142.75;65.91;77247.50;5044145;28;19924;-79
2021/05/12 00:45:14;;;;;;;;;;;;;;;-142.75;65.57;77247.50;5035247;28;20386;-77
2021/05/12 00:47:39;;;;;;;;;;;;;;;-142.75;65.37;77251.44;5053374;28;20592;-80
2021/05/12 00:50:06;;;;;;;;;;;;;;;-142.75;65.41;77265.22;5065037;28;19967;-79
2021/05/12 00:52:31;;;;;;;;;;;;;;;-142.75;65.25;77275.06;5054823;28;20011;-79
2021/05/12 00:54:57;;;;;;;;;;;;;;;-142.75;65.15;77279.00;5069587;28;20003;-79
2021/05/12 00:57:23;;;;;;;;;;;;;;;-142.75;65.28;77288.84;5034916;28;19967;-80
2021/05/12 00:59:49;;;;;;;;;;;;;;;-142.75;65.31;77296.72;5036280;28;19931;-80
2021/05/12 01:02:15;;;;;;;;;;;;;;;-142.75;65.29;77292.78;5051445;28;19916;-80
2021/05/12 01:04:41;;;;;;;;;;;;;;;-142.75;65.30;77292.78;5053172;28;20279;-79
2021/05/12 01:07:06;;;;;;;;;;;;;;;-142.75;65.15;77302.63;5061038;28;20437;-80
2021/05/12 01:09:31;;;;;;;;;;;;;;;-142.75;65.01;77314.44;5048270;28;20373;-80
2021/05/12 01:11:57;;;;;;;;;;;;;;;-142.75;64.81;77326.25;5054578;28;19920;-80
2021/05/12 01:14:22;;;;;;;;;;;;;;;-142.75;64.77;77322.31;5072146;28;19917;-80
2021/05/12 01:16:48;;;;;;;;;;;;;;;-142.75;64.92;77318.38;5071306;28;19916;-79
2021/05/12 01:19:14;;;;;;;;;;;;;;;-142.75;64.91;77318.38;5052458;28;19968;-80
2021/05/12 01:21:39;;;;;;;;;;;;;;;-142.75;64.87;77318.38;5049565;28;19920;-77
2021/05/12 01:24:04;;;;;;;;;;;;;;;-142.75;65.20;77336.09;5072139;28;20378;-79
2021/05/12 01:26:29;;;;;;;;;;;;;;;-142.75;65.28;77340.03;5056990;28;19917;-79
2021/05/12 01:28:55;;;;;;;;;;;;;;;-142.75;65.28;77338.06;5053929;28;19923;-79
2021/05/12 01:31:22;;;;;;;;;;;;;;;-142.75;65.29;77338.06;5070024;28;19916;-80
2021/05/12 01:33:49;;;;;;;;;;;;;;;-142.75;65.39;77349.88;5057289;28;20343;-79
2021/05/12 01:36:15;;;;;;;;;;;;;;;-142.75;65.04;77357.75;5071929;28;20786;-80
2021/05/12 01:38:41;;;;;;;;;;;;;;;-142.75;64.69;77355.78;5053175;28;20406;-80
2021/05/12 01:41:07;;;;;;;;;;;;;;;-142.75;64.67;77365.63;5072281;28;19955;-79
2021/05/12 01:43:33;;;;;;;;;;;;;;;-142.75;64.60;77369.56;5053952;28;19938;-79
2021/05/12 01:45:59;;;;;;;;;;;;;;;-142.75;64.75;77369.56;5063337;28;19916;-79
2021/05/12 01:48:24;;;;;;;;;;;;;;;-142.75;64.91;77361.69;5071755;28;19916;-80
2021/05/12 01:50:49;;;;;;;;;;;;;;;-142.75;65.31;77359.72;5061784;28;19924;-79
2021/05/12 01:53:15;;;;;;;;;;;;;;;-142.75;65.43;77361.69;5036591;28;20066;-80
2021/05/12 01:55:40;;;;;;;;;;;;;;;-142.75;65.72;77357.75;5046254;28;19916;-79
2021/05/12 01:58:05;;;;;;;;;;;;;;;-142.75;65.90;77353.81;5051789;28;19917;-77
2021/05/12 02:00:34;;;;;;;;;;;;;;;-142.75;66.11;77353.81;5055694;28;19917;-80
2021/05/12 02:03:00;;;;;;;;;;;;;;;-142.75;66.12;77353.81;5069536;28;19939;-79
2021/05/12 02:05:26;;;;;;;;;;;;;;;-142.75;65.62;77347.91;5071021;28;20374;-80
2021/05/12 02:07:52;;;;;;;;;;;;;;;-142.75;65.56;77334.13;5053386;28;19924;-80
2021/05/12 02:10:17;;;;;;;;;;;;;;;-142.75;65.17;77332.16;5051305;28;19929;-79
2021/05/12 02:12:42;;;;;;;;;;;;;;;-142.75;65.25;77334.13;5038166;28;19917;-77
2021/05/12 02:15:10;;;;;;;;;;;;;;;-142.75;65.21;77334.13;5033386;28;19917;-78
2021/05/12 02:17:35;;;;;;;;;;;;;;;-142.75;64.69;77351.84;5051433;28;19947;-78
2021/05/12 02:20:00;;;;;;;;;;;;;;;-142.75;64.84;77357.75;5069061;28;19923;-79
2021/05/12 02:22:25;;;;;;;;;;;;;;;-142.75;64.63;77361.69;5070517;28;19921;-79
2021/05/12 02:24:50;;;;;;;;;;;;;;;-142.75;64.74;77365.63;5069505;28;19925;-79
2021/05/12 02:27:16;;;;;;;;;;;;;;;-142.75;64.57;77373.50;5070528;28;19916;-79
2021/05/12 02:29:41;;;;;;;;;;;;;;;-142.75;64.61;77369.56;5069209;28;20015;-79
2021/05/12 02:32:06;;;;;;;;;;;;;;;-142.75;64.75;77389.25;5069737;28;19931;-80
2021/05/12 02:34:31;;;;;;;;;;;;;;;-142.75;64.94;77393.19;5070758;28;20007;-79
2021/05/12 02:36:56;;;;;;;;;;;;;;;-142.75;65.00;77397.13;5067346;28;20003;-78
2021/05/12 02:39:22;;;;;;;;;;;;;;;-142.75;65.12;77397.13;5050331;28;20336;-80
2021/05/12 02:41:47;;;;;;;;;;;;;;;-142.75;65.20;77395.16;5033018;28;19924;-78
2021/05/12 02:44:12;;;;;;;;;;;;;;;-142.75;65.27;77405.00;5059058;22;19920;-78
2021/05/12 02:46:37;;;;;;;;;;;;;;;-142.75;65.50;77420.75;5115723;27;19928;-79
2021/05/12 02:49:02;;;;;;;;;;;;;;;-142.75;65.53;77414.84;5124278;27;19915;-80
2021/05/12 02:51:28;;;;;;;;;;;;;;;-142.75;65.39;77422.72;5098635;27;19915;-79
2021/05/12 02:53:53;;;;;;;;;;;;;;;-142.75;65.47;77414.84;5105386;27;20373;-81
2021/05/12 02:56:18;;;;;;;;;;;;;;;-142.75;65.63;77412.88;5093052;28;19947;-81
2021/05/12 02:58:44;;;;;;;;;;;;;;;-142.75;65.77;77416.81;5092900;28;19919;-80
2021/05/12 03:01:10;;;;;;;;;;;;;;;-142.75;65.90;77428.63;5110423;28;19955;-80
2021/05/12 03:03:36;;;;;;;;;;;;;;;-142.75;66.10;77424.69;5092371;28;20364;-79
2021/05/12 03:06:02;;;;;;;;;;;;;;;-142.75;66.14;77428.63;5110205;28;20395;-80
2021/05/12 03:08:27;;;;;;;;;;;;;;;-142.75;66.20;77426.66;5110722;28;19915;-80
2021/05/12 03:10:52;;;;;;;;;;;;;;;-142.75;66.19;77420.75;5092363;28;19937;-79
2021/05/12 03:13:17;;;;;;;;;;;;;;;-142.75;66.50;77422.72;5092742;28;19916;-81
2021/05/12 03:15:43;;;;;;;;;;;;;;;-142.75;66.38;77428.63;5110770;28;19951;-80
2021/05/12 03:18:08;;;;;;;;;;;;;;;-142.75;66.48;77426.66;5092829;28;19922;-80
2021/05/12 03:20:34;;;;;;;;;;;;;;;-142.75;66.68;77432.56;5092359;28;20301;-79
2021/05/12 03:22:59;;;;;;;;;;;;;;;-142.75;66.78;77428.63;5092206;28;20000;-80
2021/05/12 03:25:25;;;;;;;;;;;;;;;-142.75;67.04;77424.69;5092412;28;19923;-79
2021/05/12 03:27:50;;;;;;;;;;;;;;;-142.75;67.02;77430.59;5110476;28;20014;-79
2021/05/12 03:30:20;;;;;;;;;;;;;;;-142.75;67.23;77434.53;5092581;28;20393;-80
2021/05/12 03:32:46;;;;;;;;;;;;;;;-142.75;67.49;77434.53;5092090;28;19916;-80
2021/05/12 03:35:12;;;;;;;;;;;;;;;-142.75;67.50;77450.28;5110722;28;19926;-81
2021/05/12 03:37:37;;;;;;;;;;;;;;;-142.75;67.58;77456.22;5092561;28;19938;-81
2021/05/12 03:40:04;;;;;;;;;;;;;;;-142.75;67.90;77458.16;5092631;28;20570;-78
2021/05/12 03:42:29;;;;;;;;;;;;;;;-142.75;67.96;77468.03;5111139;28;19915;-80
2021/05/12 03:44:56;;;;;;;;;;;;;;;-142.75;68.02;77473.94;5092238;28;19926;-80
2021/05/12 03:47:21;;;;;;;;;;;;;;;-142.75;68.03;77483.78;5092825;28;19915;-80
2021/05/12 03:49:46;;;;;;;;;;;;;;;-142.75;68.51;77468.03;5110587;28;19923;-80
2021/05/12 03:52:12;;;;;;;;;;;;;;;-142.75;68.65;77468.03;5092024;28;19916;-80
2021/05/12 03:54:37;;;;;;;;;;;;;;;-142.75;68.68;77468.03;5092264;28;19924;-81
2021/05/12 03:57:02;;;;;;;;;;;;;;;-142.75;68.71;77468.03;5092225;28;19948;-80
2021/05/12 03:59:27;;;;;;;;;;;;;;;-142.75;68.64;77471.97;5089314;28;19964;-78
2021/05/12 04:01:52;;;;;;;;;;;;;;;-142.75;68.91;77470.00;5092071;28;19915;-78
2021/05/12 04:04:18;;;;;;;;;;;;;;;-142.75;68.95;77477.88;5092580;28;19920;-80
2021/05/12 04:06:45;;;;;;;;;;;;;;;-142.75;68.92;77473.94;5092477;28;20381;-82
2021/05/12 04:09:10;;;;;;;;;;;;;;;-142.75;69.06;77473.94;5112677;28;19923;-80
2021/05/12 04:11:36;;;;;;;;;;;;;;;-142.75;69.20;77477.88;5112462;28;20297;-80
2021/05/12 04:14:01;;;;;;;;;;;;;;;-142.75;69.21;77468.03;5094634;28;19919;-79
2021/05/12 04:16:26;;;;;;;;;;;;;;;-142.75;69.25;77471.97;5094363;28;20362;-80
2021/05/12 04:18:51;;;;;;;;;;;;;;;-142.75;69.16;77471.97;5095366;28;19920;-80
2021/05/12 04:21:16;;;;;;;;;;;;;;;-142.75;69.32;77475.91;5112097;28;19916;-80
2021/05/12 04:23:41;;;;;;;;;;;;;;;-142.75;69.14;77481.81;5112740;28;20377;-80
2021/05/12 04:26:07;;;;;;;;;;;;;;;-142.75;69.23;77477.88;5094763;28;19935;-80
2021/05/12 04:28:32;;;;;;;;;;;;;;;-142.75;69.21;77487.72;5095758;28;19958;-81
2021/05/12 04:30:57;;;;;;;;;;;;;;;-142.75;69.20;77487.72;5094732;28;19951;-80
2021/05/12 04:33:22;;;;;;;;;;;;;;;-142.75;69.13;77491.66;5094680;28;19916;-79
2021/05/12 04:35:47;;;;;;;;;;;;;;;-142.75;68.95;77466.03;5094633;28;19922;-80
2021/05/12 04:38:13;;;;;;;;;;;;;;;-142.75;68.80;77487.72;5113511;28;19923;-80
2021/05/12 04:40:38;;;;;;;;;;;;;;;-142.75;68.77;77485.75;5095614;28;20369;-81
2021/05/12 04:43:03;;;;;;;;;;;;;;;-142.75;68.64;77473.94;5096439;28;19958;-81
2021/05/12 04:45:28;;;;;;;;;;;;;;;-142.75;68.29;77464.09;5095435;28;19918;-80
2021/05/12 04:47:56;;;;;;;;;;;;;;;-142.75;68.37;77466.03;5096982;28;20245;-81
2021/05/12 04:50:23;;;;;;;;;;;;;;;-142.75;67.90;77440.44;5113240;28;20266;-78
2021/05/12 04:52:48;;;;;;;;;;;;;;;-142.75;67.82;77440.44;5095365;28;20002;-79
2021/05/12 04:55:14;;;;;;;;;;;;;;;-142.75;67.45;77416.81;5097620;28;20355;-79
2021/05/12 04:57:39;;;;;;;;;;;;;;;-142.75;67.27;77414.84;5098603;28;20270;-80
2021/05/12 05:00:05;;;;;;;;;;;;;;;-142.75;67.45;77395.16;5117664;28;19950;-80
2021/05/12 05:02:30;;;;;;;;;;;;;;;-142.75;66.35;77371.53;5098835;28;19920;-80
2021/05/12 05:04:55;;;;;;;;;;;;;;;-142.75;66.53;77345.94;5098837;28;19959;-79
2021/05/12 05:07:20;;;;;;;;;;;;;;;-142.75;65.90;77349.88;5099422;28;19915;-79
2021/05/12 05:09:45;;;;;;;;;;;;;;;-142.75;65.53;77330.19;5098995;28;19966;-79
2021/05/12 05:12:11;;;;;;;;;;;;;;;-142.75;65.65;77306.56;5097829;28;19919;-80
2021/05/12 05:14:36;;;;;;;;;;;;;;;-142.75;65.25;77290.81;5117794;28;19916;-79
2021/05/12 05:17:02;;;;;;;;;;;;;;;-142.75;64.66;77275.06;5116154;28;20008;-79
2021/05/12 05:19:28;;;;;;;;;;;;;;;-142.75;64.29;77257.34;5098106;28;19916;-79
2021/05/12 05:21:55;;;;;;;;;;;;;;;-142.75;63.26;77225.84;5098762;28;19916;-80
2021/05/12 05:24:20;;;;;;;;;;;;;;;-142.75;62.92;77202.22;5097153;28;20434;-81
2021/05/12 05:26:46;;;;;;;;;;;;;;;-142.75;62.18;77164.81;5099801;28;19915;-81
2021/05/12 05:29:11;;;;;;;;;;;;;;;-142.75;61.72;77135.28;5116581;28;19972;-79
2021/05/12 05:31:42;;;;;;;;;;;;;;;-142.75;61.37;77099.84;5116488;28;19942;-79
2021/05/12 05:34:08;;;;;;;;;;;;;;;-142.75;59.97;77050.63;5099315;28;19919;-81
2021/05/12 05:36:33;;;;;;;;;;;;;;;-142.75;59.57;77025.03;5097996;28;20415;-81
2021/05/12 05:38:58;;;;;;;;;;;;;;;-142.75;58.36;77001.41;5099001;28;19924;-81
2021/05/12 05:41:23;;;;;;;;;;;;;;;-142.75;58.19;76967.94;5098876;28;19969;-81
2021/05/12 05:43:48;;;;;;;;;;;;;;;-142.75;57.98;76934.47;5115982;28;20332;-79
2021/05/12 05:46:14;;;;;;;;;;;;;;;-142.75;57.35;76940.38;5097679;28;20002;-79
2021/05/12 05:48:39;;;;;;;;;;;;;;;-142.75;57.92;76942.34;5114199;28;19931;-78
2021/05/12 05:51:04;;;;;;;;;;;;;;;-142.75;56.35;76873.44;5115121;28;19919;-78
2021/05/12 05:53:29;;;;;;;;;;;;;;;-142.75;55.38;76822.25;5112573;28;20389;-82
2021/05/12 05:55:55;;;;;;;;;;;;;;;-142.75;55.13;76786.84;5115711;28;19972;-78
2021/05/12 05:58:20;;;;;;;;;;;;;;;-142.75;53.73;76708.09;5096613;28;19916;-80
2021/05/12 06:00:46;;;;;;;;;;;;;;;-142.75;52.46;76698.25;5095875;28;19915;-80
2021/05/12 06:03:12;;;;;;;;;;;;;;;-142.75;53.35;76745.50;5086492;28;19920;-79
2021/05/12 06:05:37;;;;;;;;;;;;;;;-142.75;53.55;76818.31;5110200;28;19923;-80
2021/05/12 06:08:02;;;;;;;;;;;;;;;-142.75;54.56;76855.72;5094681;28;20333;-79
2021/05/12 06:10:27;;;;;;;;;;;;;;;-142.75;55.51;76812.41;5114816;28;20388;-80
2021/05/12 06:12:53;;;;;;;;;;;;;;;-142.75;53.31;76708.09;5098158;28;19920;-79
2021/05/12 06:15:20;;;;;;;;;;;;;;;-142.75;52.51;76641.16;5097184;28;19939;-81
2021/05/12 06:17:45;;;;;;;;;;;;;;;-142.75;51.78;76540.75;5092754;28;19915;-79
2021/05/12 06:20:10;;;;;;;;;;;;;;;-142.75;50.71;76444.31;5089519;28;19916;-81
2021/05/12 06:22:39;;;;;;;;;;;;;;;-142.75;47.42;76369.50;5113572;28;19916;-78
2021/05/12 06:25:04;;;;;;;;;;;;;;;-142.75;47.85;76328.19;5092666;28;20048;-78
2021/05/12 06:27:29;;;;;;;;;;;;;;;-142.75;45.79;76247.47;5113425;28;20630;-79
2021/05/12 06:29:54;;;;;;;;;;;;;;;-142.75;45.93;76202.19;5114257;28;20330;-79
2021/05/12 06:32:20;;;;;;;;;;;;;;;-142.75;44.80;76170.72;5095071;28;19922;-80
2021/05/12 06:34:45;;;;;;;;;;;;;;;-142.75;44.32;76141.19;5094957;28;19938;-79
2021/05/12 06:37:10;;;;;;;;;;;;;;;-142.75;43.67;76111.66;5095489;28;19916;-79
2021/05/12 06:39:35;;;;;;;;;;;;;;;-142.75;43.81;76093.94;5095110;28;20307;-80
2021/05/12 06:42:00;;;;;;;;;;;;;;;-142.75;43.31;76095.91;5094458;28;19941;-80
2021/05/12 06:44:26;;;;;;;;;;;;;;;-142.75;43.80;76068.38;5094236;28;19924;-80
2021/05/12 06:46:52;;;;;;;;;;;;;;;-142.75;43.63;76023.09;5095192;28;19981;-80
2021/05/12 06:49:17;;;;;;;;;;;;;;;-142.75;41.74;75926.66;5113105;28;19923;-80
2021/05/12 06:51:43;;;;;;;;;;;;;;;-142.75;40.49;75908.94;5094612;28;19980;-80
2021/05/12 06:54:08;;;;;;;;;;;;;;;-142.75;40.76;75877.44;5113394;28;19915;-82
2021/05/12 06:56:33;;;;;;;;;;;;;;;-142.75;39.98;75944.38;5093151;28;21032;-77
2021/05/12 06:58:58;;;;;;;;;;;;;;;-142.75;40.16;76005.38;5111038;28;19922;-79
2021/05/12 07:01:23;;;;;;;;;;;;;;;-142.75;41.29;75977.81;5113124;28;20622;-81
2021/05/12 07:03:49;;;;;;;;;;;;;;;-142.75;39.83;75912.88;5094293;28;19977;-81
2021/05/12 07:06:14;;;;;;;;;;;;;;;-142.75;40.30;75887.28;5113188;28;20034;-81
2021/05/12 07:08:39;;;;;;;;;;;;;;;-142.75;38.93;75814.47;5094673;28;19919;-81
2021/05/12 07:11:05;;;;;;;;;;;;;;;-142.75;39.32;75763.28;5113336;28;19922;-82
2021/05/12 07:13:30;;;;;;;;;;;;;;;-142.75;38.00;75771.16;5095412;28;19923;-82
2021/05/12 07:15:55;;;;;;;;;;;;;;;-142.75;38.41;75739.69;5113205;28;19938;-82
2021/05/12 07:18:21;;;;;;;;;;;;;;;-142.75;39.43;75743.63;5112889;28;19919;-82
2021/05/12 07:20:46;;;;;;;;;;;;;;;-142.75;37.63;75714.09;5095432;28;19915;-82
2021/05/12 07:23:19;;;;;;;;;;;;;;;-142.75;36.73;75645.22;5094434;28;19976;-86
2021/05/12 07:25:44;;;;;;;;;;;;;;;-142.75;37.75;75645.22;5094911;28;19923;-84
2021/05/12 07:28:09;;;;;;;;;;;;;;;-142.75;37.18;75574.38;5094942;28;19916;-85
2021/05/12 07:30:34;;;;;;;;;;;;;;;-142.75;37.29;75649.16;5094382;28;19922;-82
2021/05/12 07:33:00;;;;;;;;;;;;;;;-142.75;36.57;75550.75;5093741;28;19916;-82
2021/05/12 07:35:25;;;;;;;;;;;;;;;-142.75;36.45;75564.53;5112976;28;19992;-86
2021/05/12 07:37:50;;;;;;;;;;;;;;;-142.75;37.15;75619.63;5094592;28;19920;-85
2021/05/12 07:40:16;;;;;;;;;;;;;;;-142.75;36.35;75572.41;5112695;28;19926;-82
2021/05/12 07:42:43;;;;;;;;;;;;;;;-142.75;37.12;75548.78;5112328;28;19970;-86
2021/05/12 07:45:10;;;;;;;;;;;;;;;-142.75;36.42;75542.88;5109438;28;20297;-85
2021/05/12 07:47:36;;;;;;;;;;;;;;;-142.75;36.45;75527.13;5094258;28;19916;-81
2021/05/12 07:50:01;;;;;;;;;;;;;;;-142.75;35.26;75536.97;5112742;28;19965;-81
2021/05/12 07:52:26;;;;;;;;;;;;;;;-142.75;35.07;75470.06;5094344;28;19923;-84
2021/05/12 07:54:52;;;;;;;;;;;;;;;-142.75;35.20;75491.72;5112426;28;19926;-82
2021/05/12 07:57:17;;;;;;;;;;;;;;;-142.75;36.04;75468.09;5094577;28;19915;-82
2021/05/12 07:59:43;;;;;;;;;;;;;;;-142.75;33.83;75570.44;5112551;28;19916;-85
2021/05/12 08:02:08;;;;;;;;;;;;;;;-142.75;36.29;75570.44;5113048;28;20381;-83
2021/05/12 08:04:34;;;;;;;;;;;;;;;-142.75;35.97;75523.19;5094291;28;20377;-82
2021/05/12 08:06:59;;;;;;;;;;;;;;;-142.75;35.10;75489.75;5091584;28;20011;-84
2021/05/12 08:09:25;;;;;;;;;;;;;;;-142.75;36.02;75554.69;5092805;28;19923;-82
2021/05/12 08:11:50;;;;;;;;;;;;;;;-142.75;35.61;75596.00;5112013;28;19920;-81
2021/05/12 08:14:15;;;;;;;;;;;;;;;-142.75;36.08;75495.66;5112177;28;20052;-83
2021/05/12 08:16:41;;;;;;;;;;;;;;;-142.75;34.20;75407.09;5112547;28;20046;-84
2021/05/12 08:19:06;;;;;;;;;;;;;;;-142.75;36.03;75474.00;5090847;28;19916;-83
2021/05/12 08:21:32;;;;;;;;;;;;;;;-142.75;33.91;75375.59;5111874;28;19927;-81
2021/05/12 08:23:57;;;;;;;;;;;;;;;-142.75;35.40;75397.25;5092999;28;19927;-81
2021/05/12 08:26:22;;;;;;;;;;;;;;;-142.75;33.22;75324.44;5111638;28;19938;-81
2021/05/12 08:28:47;;;;;;;;;;;;;;;-142.75;32.53;75296.88;5094369;28;19916;-80
2021/05/12 08:31:13;;;;;;;;;;;;;;;-142.75;34.02;75322.47;5096900;28;19924;-80
2021/05/12 08:33:40;;;;;;;;;;;;;;;-142.75;33.17;75291.00;5097291;28;19916;-81
2021/05/12 08:36:05;;;;;;;;;;;;;;;-142.75;33.81;75489.75;5114879;28;19922;-79
2021/05/12 08:38:31;;;;;;;;;;;;;;;-142.75;35.27;75625.53;5096599;28;19915;-77
2021/05/12 08:40:58;;;;;;;;;;;;;;;-142.75;37.97;75952.25;5096551;28;20404;-78
2021/05/12 08:43:24;;;;;;;;;;;;;;;-142.75;37.91;75853.84;5096200;28;19923;-79
2021/05/12 08:45:50;;;;;;;;;;;;;;;-142.75;38.55;75938.47;5096424;28;19930;-78
2021/05/12 08:48:16;;;;;;;;;;;;;;;-142.75;40.54;76027.03;5111397;28;20518;-77
2021/05/12 08:50:42;;;;;;;;;;;;;;;-142.75;39.90;76066.41;5112631;28;19920;-78
2021/05/12 08:53:08;;;;;;;;;;;;;;;-142.75;42.36;76066.41;5109042;28;19916;-77
2021/05/12 08:55:34;;;;;;;;;;;;;;;-142.75;40.47;76206.13;5109734;28;19923;-78
2021/05/12 08:57:59;;;;;;;;;;;;;;;-142.75;40.41;75940.44;5113076;28;19923;-77
2021/05/12 09:00:24;;;;;;;;;;;;;;;-142.75;38.91;75842.03;5113596;28;19916;-77
2021/05/12 09:02:50;;;;;;;;;;;;;;;-142.75;40.19;75873.50;5112038;28;19926;-76
2021/05/12 09:05:16;;;;;;;;;;;;;;;-142.75;36.85;75723.94;5110891;28;19924;-76
2021/05/12 09:07:41;;;;;;;;;;;;;;;-142.75;38.27;75655.06;5113683;28;19926;-77
2021/05/12 09:10:07;;;;;;;;;;;;;;;-142.75;36.79;75495.66;5113504;28;19916;-76
2021/05/12 09:12:41;;;;;;;;;;;;;;;-142.75;34.75;75511.41;5112751;28;19968;-76
2021/05/12 09:15:07;;;;;;;;;;;;;;;-142.75;35.77;75613.72;5113548;28;19960;-77
2021/05/12 09:17:37;;;;;;;;;;;;;;;-142.75;36.82;75611.75;5095257;28;20297;-76
2021/05/12 09:20:02;;;;;;;;;;;;;;;-142.75;35.77;75481.88;5095157;28;19928;-77
2021/05/12 09:22:27;;;;;;;;;;;;;;;-142.75;33.24;75454.31;5094425;28;20297;-76
2021/05/12 09:25:05;;;;;;;;;;;;;;;-142.75;36.03;75562.56;5113214;28;19920;-76
2021/05/12 09:27:31;;;;;;;;;;;;;;;-142.75;35.31;75588.16;5113272;28;19922;-77
2021/05/12 09:29:59;;;;;;;;;;;;;;;-142.75;36.48;75662.94;5113231;28;19919;-76
2021/05/12 09:32:24;;;;;;;;;;;;;;;-142.75;36.81;75729.84;5094451;28;19923;-76
2021/05/12 09:34:53;;;;;;;;;;;;;;;-142.75;35.06;75560.59;5113033;28;19919;-76
2021/05/12 09:37:31;;;;;;;;;;;;;;;-142.75;33.54;75560.59;5112999;28;19959;-76
2021/05/12 09:39:57;;;;;;;;;;;;;;;-142.75;35.12;75753.47;5094274;28;19916;-75
2021/05/12 09:42:23;;;;;;;;;;;;;;;-142.75;36.49;75865.63;5094256;28;19972;-75
2021/05/12 09:45:08;;;;;;;;;;;;;;;-142.75;37.66;75966.00;5112573;28;19924;-77
2021/05/12 09:47:33;;;;;;;;;;;;;;;-142.75;38.64;75912.88;5094114;28;19962;-77
2021/05/12 09:49:58;;;;;;;;;;;;;;;-142.75;38.95;75757.41;5094411;28;19966;-77
2021/05/12 09:52:27;;;;;;;;;;;;;;;-142.75;36.30;75721.97;5108112;28;20352;-77
2021/05/12 09:54:59;;;;;;;;;;;;;;;-142.75;37.68;75729.84;5109453;28;20312;-76
2021/05/12 09:57:24;;;;;;;;;;;;;;;-142.75;37.34;75769.19;5090012;28;19966;-76
2021/05/12 09:59:49;;;;;;;;;;;;;;;-142.75;37.80;75716.06;5106855;28;19916;-76
2021/05/12 10:02:14;;;;;;;;;;;;;;;-142.75;36.89;75779.03;5103449;28;19934;-75
2021/05/12 10:04:43;;;;;;;;;;;;;;;-142.75;36.78;75712.13;5094021;28;19923;-76
2021/05/12 10:07:27;;;;;;;;;;;;;;;-142.75;36.62;75753.47;5112381;28;19968;-78
2021/05/12 10:09:55;;;;;;;;;;;;;;;-142.75;36.37;75865.63;5109922;28;20646;-77
2021/05/12 10:12:24;;;;;;;;;;;;;;;-142.75;37.84;75908.94;5112046;28;19915;-76
2021/05/12 10:14:51;;;;;;;;;;;;;;;-142.75;38.75;75855.81;5093880;28;20346;-76
2021/05/12 10:17:17;;;;;;;;;;;;;;;-142.75;36.61;75877.44;5112061;28;20388;-76
2021/05/12 10:19:44;;;;;;;;;;;;;;;-142.75;35.74;75897.13;5111935;28;19943;-76
2021/05/12 10:22:09;;;;;;;;;;;;;;;-142.75;37.82;75942.41;5111682;28;20401;-77
2021/05/12 10:24:36;;;;;;;;;;;;;;;-142.75;38.14;76050.66;5111670;28;20064;-77
2021/05/12 10:27:05;;;;;;;;;;;;;;;-142.75;37.36;75999.47;5093697;28;19958;-76
2021/05/12 10:29:31;;;;;;;;;;;;;;;-142.75;38.20;75704.25;5111886;28;19919;-77
2021/05/12 10:31:56;;;;;;;;;;;;;;;-142.75;33.95;75747.56;5111389;28;19927;-75
2021/05/12 10:34:38;;;;;;;;;;;;;;;-142.75;33.74;75706.22;5111665;28;19980;-77
2021/05/12 10:37:15;;;;;;;;;;;;;;;-142.75;34.07;75519.25;5134484;22;19924;-75
2021/05/12 10:39:44;;;;;;;;;;;;;;;-142.75;33.85;75397.25;5118423;27;19919;-76
2021/05/12 10:42:09;;;;;;;;;;;;;;;-142.75;33.51;75310.66;5114692;27;19916;-76
2021/05/12 10:44:39;;;;;;;;;;;;;;;-142.75;32.77;75275.25;5112277;28;19919;-76
2021/05/12 10:47:08;;;;;;;;;;;;;;;-142.75;31.46;75259.50;5112856;28;19922;-76
2021/05/12 10:49:33;;;;;;;;;;;;;;;-142.75;31.71;75273.28;5112481;28;19916;-75
2021/05/12 10:52:04;;;;;;;;;;;;;;;-142.75;30.95;75332.31;5111556;28;19920;-75
2021/05/12 10:54:46;;;;;;;;;;;;;;;-142.75;31.04;75269.34;5112689;28;19922;-75
2021/05/12 10:57:29;;;;;;;;;;;;;;;-142.75;30.74;75346.09;5112768;28;19916;-76
2021/05/12 10:59:54;;;;;;;;;;;;;;;-142.75;31.69;75361.84;5094287;28;19916;-76
2021/05/12 11:02:19;;;;;;;;;;;;;;;-142.75;32.06;75355.94;5112683;28;19922;-76
2021/05/12 11:05:01;;;;;;;;;;;;;;;-142.75;32.78;75251.63;5094758;28;20369;-74
2021/05/12 11:07:26;;;;;;;;;;;;;;;-142.75;31.99;75147.34;5112512;28;19923;-74
2021/05/12 11:09:51;;;;;;;;;;;;;;;-142.75;30.88;75285.09;5113122;28;20300;-75
2021/05/12 11:12:19;;;;;;;;;;;;;;;-142.75;31.88;75275.25;5093099;28;19915;-74
2021/05/12 11:14:55;;;;;;;;;;;;;;;-142.75;30.64;75385.44;5110193;28;19916;-74
2021/05/12 11:17:22;;;;;;;;;;;;;;;-142.75;31.56;75369.69;5110387;28;20393;-74
2021/05/12 11:19:55;;;;;;;;;;;;;;;-142.75;33.70;75420.88;5110089;28;20049;-75
2021/05/12 11:33:34;;;;;;;;;;;;;;;-142.75;34.63;75552.72;5112268;28;19934;-75
2021/05/12 11:38:29;;;;;;;;;;;;;;;-142.75;32.49;75655.06;5112064;28;19922;-74
2021/05/12 11:40:58;;;;;;;;;;;;;;;-142.75;34.10;75800.69;5111987;28;20041;-75
2021/05/12 11:43:34;;;;;;;;;;;;;;;-142.75;35.93;75806.59;5104722;28;19915;-74
2021/05/12 11:46:18;;;;;;;;;;;;;;;-142.75;35.71;75810.53;5111525;28;20006;-75
2021/05/12 11:48:47;;;;;;;;;;;;;;;-142.75;35.93;75889.25;5111705;28;19939;-75
2021/05/12 11:51:16;;;;;;;;;;;;;;;-142.75;36.62;75920.75;5109739;28;20388;-75
2021/05/12 11:53:43;;;;;;;;;;;;;;;-142.75;35.61;75924.69;5108000;28;19923;-74
2021/05/12 11:56:09;;;;;;;;;;;;;;;-142.75;36.13;75861.69;5093423;28;20014;-75
2021/05/12 11:58:37;;;;;;;;;;;;;;;-142.75;36.05;75865.63;5110930;28;20400;-75
2021/05/12 12:01:06;;;;;;;;;;;;;;;-142.75;36.32;75893.19;5111330;28;20008;-75
2021/05/12 12:03:32;;;;;;;;;;;;;;;-142.75;37.58;75969.94;5113167;28;19965;-74
2021/05/12 12:06:05;;;;;;;;;;;;;;;-142.75;38.05;75999.47;5097654;28;20399;-75
2021/05/12 12:08:32;;;;;;;;;;;;;;;-142.75;37.23;75940.44;5097556;28;20363;-74
2021/05/12 12:11:07;;;;;;;;;;;;;;;-142.75;36.53;75922.72;5115184;28;20327;-75
2021/05/12 12:13:33;;;;;;;;;;;;;;;-142.75;36.25;75816.44;5097567;28;20385;-76
2021/05/12 12:15:58;;;;;;;;;;;;;;;-142.75;36.13;75995.53;5115712;28;20014;-75
2021/05/12 12:18:30;;;;;;;;;;;;;;;-142.75;37.39;75918.78;5115434;28;19916;-75
2021/05/12 12:20:55;;;;;;;;;;;;;;;-142.75;36.78;75969.94;5097237;28;20284;-75
2021/05/12 12:23:28;;;;;;;;;;;;;;;-142.75;36.29;75975.84;5115607;28;19915;-74
2021/05/12 12:26:13;;;;;;;;;;;;;;;-142.75;36.92;75987.66;5115036;28;20308;-75
2021/05/12 12:28:39;;;;;;;;;;;;;;;-142.75;38.01;75964.03;5115106;28;19920;-75
2021/05/12 12:31:05;;;;;;;;;;;;;;;-142.75;39.01;75944.38;5115141;28;19916;-76
2021/05/12 12:33:30;;;;;;;;;;;;;;;-142.75;37.50;75967.97;5097014;28;19915;-76
2021/05/12 12:36:03;;;;;;;;;;;;;;;-142.75;37.50;75954.22;5115259;28;19920;-76
2021/05/12 12:38:30;;;;;;;;;;;;;;;-142.75;36.38;75975.84;5115569;28;19947;-76